Ojibwa, WI (54862)

11:48 AM CST on February 14, 2016 (GMT -0600)
Dam Road | | Change Station
CLOSE
Current Station
Personal Weather Station
Location: Winter, WI
Elevation: 1312 ft
Nearby Weather Stations

Elev 1312 ft 45.87 °N, 91.07 °W | Updated 20 seconds ago

Overcast
Overcast
14.0 °F
Feels Like 14 °F
N
2.3
Wind Variable Wind from SSE
Gusts 2.3 mph

Today
High -- | Low -- °F
--% Chance of Precip.
Yesterday
High -- | Low -- °F
Precip. -- in
Pressure 30.10 in
Visibility 7.0 miles
Clouds Scattered Clouds 3200 ft
Overcast 4100 ft
Windchill 14 °F
Dew Point 2 °F
Humidity 57%
Rainfall 0.00 in
Snow Depth Not available.
7:08 AM 5:28 PM
Waxing Crescent, 43% visible
METAR KRCX 141735Z AUTO 15011KT 7SM -SN SCT032 OVC041 M10/M18 A3010 RMK AO2 T11021183
Pressure 30.10 in
Visibility 7.0 miles
Clouds Scattered Clouds 3200 ft
Overcast 4100 ft
Windchill 14 °F
Dew Point 2 °F
Humidity 57%
Rainfall 0.00 in
Snow Depth Not available.
7:08 AM 5:28 PM
Waxing Crescent, 43% visible
METAR KRCX 141735Z AUTO 15011KT 7SM -SN SCT032 OVC041 M10/M18 A3010 RMK AO2 T11021183

10-Day Weather Forecast

Almanac

Astronomy

Feb. 14, 2016 Rise Set
Actual Time
Civil Twilight
Nautical Twilight
Astronomical Twilight
Moon
Length of Visible Light
Length of Day
Tomorrow will be .
, % of the Moon is Illuminated

Today's Extremes

State Highs State Lows

Community

WunderPhotos

Upload Photos

1,892,860 photos uploaded!

WunderBlog® & News

Nearby

Air Quality

  Air Quality AQ Index Pollutant
Not available.

Snow Depth

Station Depth Elevation

Earthquake Activity

City Distance Mag. Time & Date
Minimum magnitude displayed is 2.5.

Coastal Water Temperatures

Place Temperature

Stations

Nearby Weather Stations

Station Location Temp. Windchill Dew Point Humidity Wind Precip. Elev Updated Type
                   

Watches & Warnings

There are currently no watches in effect.